createdAt,value
2019-05-26T00:00:28.155Z,67.46
2019-05-26T00:05:33.893Z,67.46
2019-05-26T00:10:39.210Z,68.32
2019-05-26T00:15:45.115Z,68.32
2019-05-26T00:20:50.338Z,70.33
2019-05-26T00:25:55.987Z,69.97
2019-05-26T00:31:01.436Z,70.23
2019-05-26T00:36:06.957Z,70.23
2019-05-26T00:41:12.872Z,70.56
2019-05-26T00:46:18.481Z,68.24
2019-05-26T00:51:23.889Z,68.72
2019-05-26T00:56:29.565Z,67.96
2019-05-26T01:01:34.971Z,68.35
2019-05-26T01:06:40.628Z,68.56
2019-05-26T01:11:45.919Z,69.64
2019-05-26T01:16:51.169Z,69.80
2019-05-26T01:21:56.549Z,69.80
2019-05-26T01:27:02.326Z,70.14
2019-05-26T01:32:07.621Z,70.30
2019-05-26T01:37:13.274Z,70.30
2019-05-26T01:42:18.645Z,69.78
2019-05-26T01:47:24.032Z,69.83
2019-05-26T01:52:29.311Z,69.69
2019-05-26T01:57:34.743Z,69.91
2019-05-26T02:02:40.290Z,69.91
2019-05-26T02:07:45.915Z,68.66
2019-05-26T02:12:51.224Z,68.66
2019-05-26T02:17:56.429Z,68.61
2019-05-26T02:23:01.738Z,67.89
2019-05-26T02:28:06.977Z,68.19
2019-05-26T02:33:12.268Z,67.87
2019-05-26T02:38:19.008Z,67.87
2019-05-26T02:43:24.791Z,69.56
2019-05-26T02:48:30.081Z,69.86
2019-05-26T02:53:35.386Z,69.86
2019-05-26T02:58:40.622Z,70.23
2019-05-26T03:03:46.546Z,70.23
2019-05-26T03:08:53.842Z,69.18
2019-05-26T03:14:01.988Z,69.48
2019-05-26T03:19:07.597Z,69.48
2019-05-26T03:24:15.846Z,70.17
2019-05-26T03:29:21.248Z,71.11
2019-05-26T03:34:26.863Z,70.46
2019-05-26T03:39:44.727Z,70.46
2019-05-26T03:44:39.839Z,71.32
2019-05-26T03:49:45.100Z,70.66
2019-05-26T03:54:51.326Z,70.66
2019-05-26T03:59:56.563Z,71.27
2019-05-26T04:05:02.372Z,71.99
2019-05-26T04:10:08.778Z,71.35
2019-05-26T04:15:14.976Z,71.40
2019-05-26T04:20:20.595Z,72.69
2019-05-26T04:25:26.140Z,72.79
2019-05-26T04:30:31.563Z,71.28
2019-05-26T04:35:37.012Z,72.55
2019-05-26T04:40:42.559Z,72.55
2019-05-26T04:45:48.052Z,71.69
2019-05-26T04:50:53.355Z,71.25
2019-05-26T04:55:58.600Z,71.45
2019-05-26T05:01:03.907Z,71.45
2019-05-26T05:06:09.163Z,72.00
2019-05-26T05:11:14.491Z,72.00
2019-05-26T05:16:19.744Z,71.00
2019-05-26T05:21:25.089Z,71.24
2019-05-26T05:26:30.721Z,71.24
2019-05-26T05:31:36.241Z,71.75
2019-05-26T05:36:41.690Z,73.71
2019-05-26T05:41:46.940Z,73.71
2019-05-26T05:46:52.236Z,73.09
2019-05-26T05:51:57.574Z,72.75
2019-05-26T05:57:03.054Z,72.15
2019-05-26T06:02:08.615Z,72.81
2019-05-26T06:07:14.200Z,73.73
2019-05-26T06:12:19.677Z,73.73
2019-05-26T06:17:24.914Z,74.11
2019-05-26T06:22:30.589Z,73.23
2019-05-26T06:27:36.246Z,73.63
2019-05-26T06:32:41.676Z,71.63
2019-05-26T06:37:46.930Z,72.34
2019-05-26T06:42:52.235Z,72.34
2019-05-26T06:47:57.873Z,71.83
2019-05-26T06:53:04.329Z,71.85
2019-05-26T06:58:09.646Z,71.75
2019-05-26T07:03:15.196Z,71.93
2019-05-26T07:08:20.600Z,72.14
2019-05-26T07:13:26.946Z,71.24
2019-05-26T07:18:32.256Z,70.41
2019-05-26T07:23:37.526Z,70.41
2019-05-26T07:28:43.251Z,69.65
2019-05-26T07:33:48.737Z,69.01
2019-05-26T07:38:54.158Z,69.01
2019-05-26T07:43:59.426Z,68.15
2019-05-26T07:49:05.231Z,67.90
2019-05-26T07:54:24.553Z,67.67
2019-05-26T07:59:17.691Z,67.37
2019-05-26T08:04:23.049Z,67.37
2019-05-26T08:09:28.749Z,65.73
2019-05-26T08:14:34.036Z,65.73
2019-05-26T08:19:39.257Z,65.02
2019-05-26T08:24:45.822Z,64.72
2019-05-26T08:29:51.273Z,64.72
2019-05-26T08:34:56.538Z,65.25
2019-05-26T08:40:19.998Z,64.56
2019-05-26T08:45:25.595Z,64.26
2019-05-26T08:50:34.160Z,64.26
2019-05-26T08:55:38.043Z,65.13
2019-05-26T09:00:43.496Z,64.10
2019-05-26T09:05:49.267Z,64.37
2019-05-26T09:10:54.569Z,63.35
2019-05-26T09:15:59.804Z,63.74
2019-05-26T09:21:05.506Z,63.74
2019-05-26T09:26:10.822Z,62.75
2019-05-26T09:31:16.122Z,62.33
2019-05-26T09:36:21.763Z,62.33
2019-05-26T09:41:27.605Z,62.09
2019-05-26T09:46:32.890Z,60.00
2019-05-26T09:51:38.130Z,58.69
2019-05-26T09:56:43.398Z,57.22
2019-05-26T10:01:48.719Z,58.65
2019-05-26T10:06:54.134Z,55.83
2019-05-26T10:11:59.587Z,56.94
2019-05-26T10:17:05.047Z,56.94
2019-05-26T10:22:10.327Z,53.65
2019-05-26T10:27:15.539Z,51.46
2019-05-26T10:32:20.972Z,51.46
2019-05-26T10:37:26.459Z,50.63
2019-05-26T10:42:31.836Z,50.77
2019-05-26T10:47:37.659Z,50.59
2019-05-26T10:52:43.517Z,50.59
2019-05-26T10:57:48.826Z,50.26
2019-05-26T11:02:54.359Z,50.10
2019-05-26T11:08:00.241Z,48.99
2019-05-26T11:13:05.902Z,48.99
2019-05-26T11:18:11.359Z,48.79
2019-05-26T11:23:16.590Z,48.54
2019-05-26T11:28:21.860Z,45.79
2019-05-26T11:33:27.095Z,45.79
2019-05-26T11:38:33.833Z,47.31
2019-05-26T11:43:39.628Z,45.75
2019-05-26T11:48:45.987Z,44.75
2019-05-26T11:53:51.532Z,46.46
2019-05-26T11:58:56.837Z,46.46
2019-05-26T12:04:02.372Z,43.48
2019-05-26T12:09:09.400Z,43.48
2019-05-26T12:14:14.758Z,44.50
2019-05-26T12:19:20.161Z,45.04
2019-05-26T12:24:25.501Z,44.29
2019-05-26T12:29:31.197Z,45.58
2019-05-26T12:34:36.588Z,45.58
2019-05-26T12:39:42.358Z,42.77
2019-05-26T12:44:49.907Z,42.77
2019-05-26T12:49:54.642Z,42.74
2019-05-26T12:55:00.128Z,42.87
2019-05-26T13:00:09.919Z,42.87
2019-05-26T13:05:16.606Z,43.15
2019-05-26T13:10:22.363Z,43.86
2019-05-26T13:15:27.801Z,43.94
2019-05-26T13:20:33.431Z,43.90
2019-05-26T13:25:38.771Z,43.90
2019-05-26T13:30:44.100Z,41.88
2019-05-26T13:35:49.815Z,41.88
2019-05-26T13:40:55.285Z,41.62
2019-05-26T13:46:00.705Z,42.02
2019-05-26T13:51:05.997Z,40.94
2019-05-26T13:56:11.531Z,40.94
2019-05-26T14:01:18.171Z,40.42
2019-05-26T14:06:23.542Z,39.88
2019-05-26T14:11:28.776Z,39.68
2019-05-26T14:16:35.797Z,39.40
2019-05-26T14:21:41.120Z,38.37
2019-05-26T14:26:46.517Z,37.97
2019-05-26T14:31:52.989Z,39.24
2019-05-26T14:36:58.390Z,38.65
2019-05-26T14:42:03.688Z,38.65
2019-05-26T14:47:09.011Z,34.96
2019-05-26T14:52:14.291Z,34.96
2019-05-26T14:57:20.086Z,34.36
2019-05-26T15:02:25.487Z,35.84
2019-05-26T15:07:31.061Z,35.93
2019-05-26T15:12:36.378Z,35.85
2019-05-26T15:17:41.834Z,35.85
2019-05-26T15:22:47.075Z,35.08
2019-05-26T15:27:52.660Z,34.93
2019-05-26T15:32:58.444Z,34.93
2019-05-26T15:38:04.500Z,34.86
2019-05-26T15:43:10.070Z,34.59
2019-05-26T15:48:15.387Z,34.05
2019-05-26T15:53:21.943Z,33.68
2019-05-26T15:58:27.458Z,33.68
2019-05-26T16:03:33.145Z,33.93
2019-05-26T16:08:38.868Z,33.24
2019-05-26T16:13:44.782Z,35.22
2019-05-26T16:18:50.339Z,33.33
2019-05-26T16:23:56.200Z,34.71
2019-05-26T16:29:01.507Z,36.28
2019-05-26T16:34:08.424Z,37.14
2019-05-26T16:39:13.866Z,37.14
2019-05-26T16:44:20.083Z,36.91
2019-05-26T16:49:25.466Z,37.00
2019-05-26T16:54:31.096Z,37.24
2019-05-26T16:59:36.864Z,37.24
2019-05-26T17:04:42.355Z,36.97
2019-05-26T17:09:47.845Z,36.36
2019-05-26T17:14:53.976Z,36.36
2019-05-26T17:19:59.343Z,36.96
2019-05-26T17:25:06.582Z,36.82
2019-05-26T17:30:12.529Z,36.41
2019-05-26T17:35:18.245Z,36.41
2019-05-26T17:40:24.405Z,36.95
2019-05-26T17:45:29.641Z,37.12
2019-05-26T17:50:34.993Z,37.55
2019-05-26T17:55:41.412Z,37.02
2019-05-26T18:00:47.149Z,38.20
2019-05-26T18:05:52.714Z,38.58
2019-05-26T18:10:58.063Z,38.38
2019-05-26T18:16:03.427Z,38.22
2019-05-26T18:21:09.093Z,38.22
2019-05-26T18:26:14.760Z,39.47
2019-05-26T18:31:20.151Z,38.88
2019-05-26T18:36:25.675Z,38.88
2019-05-26T18:41:31.094Z,39.44
2019-05-26T18:46:37.386Z,40.04
2019-05-26T18:51:42.713Z,40.04
2019-05-26T18:56:48.083Z,40.38
2019-05-26T19:01:53.655Z,40.38
2019-05-26T19:06:58.991Z,41.39
2019-05-26T19:12:04.723Z,41.47
2019-05-26T19:17:10.679Z,41.47
2019-05-26T19:22:16.367Z,41.55
2019-05-26T19:27:21.572Z,41.72
2019-05-26T19:32:26.970Z,41.82
2019-05-26T19:37:33.223Z,41.82
2019-05-26T19:42:38.898Z,42.47
2019-05-26T19:47:44.456Z,43.07
2019-05-26T19:52:50.317Z,43.19
2019-05-26T19:57:55.939Z,43.37
2019-05-26T20:03:01.325Z,43.37
2019-05-26T20:08:07.920Z,43.91
2019-05-26T20:13:13.221Z,44.15
2019-05-26T20:18:18.673Z,44.67
2019-05-26T20:23:24.134Z,45.41
2019-05-26T20:28:29.781Z,45.41
2019-05-26T20:33:35.190Z,45.04
2019-05-26T20:38:40.963Z,45.04
2019-05-26T20:43:46.744Z,45.93
2019-05-26T20:48:52.119Z,47.09
2019-05-26T20:53:57.850Z,47.09
2019-05-26T20:59:03.282Z,46.52
2019-05-26T21:04:09.764Z,46.18
2019-05-26T21:09:15.490Z,46.18
2019-05-26T21:14:21.235Z,46.66
2019-05-26T21:19:26.618Z,46.33
2019-05-26T21:24:32.301Z,47.15
2019-05-26T21:29:37.837Z,47.37
2019-05-26T21:34:43.426Z,47.37
2019-05-26T21:39:49.107Z,47.44
2019-05-26T21:44:54.466Z,48.02
2019-05-26T21:49:59.814Z,48.73
2019-05-26T21:55:07.230Z,48.73
2019-05-26T22:00:18.647Z,49.10
2019-05-26T22:05:25.751Z,49.96
2019-05-26T22:10:31.458Z,49.66
2019-05-26T22:15:37.935Z,49.56
2019-05-26T22:20:43.563Z,49.56
2019-05-26T22:25:49.327Z,51.20
2019-05-26T22:30:54.786Z,51.20
2019-05-26T22:36:00.273Z,50.87
2019-05-26T22:41:05.874Z,50.87
2019-05-26T22:46:11.390Z,51.08
2019-05-26T22:51:18.305Z,51.46
2019-05-26T22:56:23.903Z,51.46
2019-05-26T23:01:29.524Z,51.28
2019-05-26T23:06:34.834Z,51.10
2019-05-26T23:11:40.141Z,51.10
2019-05-26T23:16:45.842Z,51.39
2019-05-26T23:21:51.451Z,51.24
2019-05-26T23:26:56.668Z,51.66
2019-05-26T23:32:02.184Z,51.66
2019-05-26T23:37:07.531Z,51.87
2019-05-26T23:42:12.855Z,52.86
2019-05-26T23:47:18.159Z,52.86
2019-05-26T23:52:23.735Z,54.25
2019-05-26T23:57:29.004Z,54.40
